sensor_id;sensor_type;location;lat;lon;timestamp;P1;durP1;ratioP1;P2;durP2;ratioP2
52942;SDS011;38809;53.300;6.614;2023-07-02T09:13:07;6.32;;;1.70;;
52942;SDS011;38809;53.300;6.614;2023-07-02T09:15:35;5.20;;;1.77;;
52942;SDS011;38809;53.300;6.614;2023-07-02T09:18:14;5.75;;;1.90;;
52942;SDS011;38809;53.300;6.614;2023-07-02T09:20:39;5.75;;;1.95;;
52942;SDS011;38809;53.300;6.614;2023-07-02T09:23:05;4.13;;;1.33;;
52942;SDS011;38809;53.300;6.614;2023-07-02T09:25:37;5.68;;;1.33;;
52942;SDS011;38809;53.300;6.614;2023-07-02T09:28:20;3.65;;;1.52;;
52942;SDS011;38809;53.300;6.614;2023-07-02T09:33:28;4.25;;;1.17;;
52942;SDS011;38809;53.300;6.614;2023-07-02T09:35:54;4.80;;;1.58;;
52942;SDS011;38809;53.300;6.614;2023-07-02T09:38:20;4.97;;;1.45;;
52942;SDS011;38809;53.300;6.614;2023-07-02T09:40:47;5.57;;;2.15;;
52942;SDS011;38809;53.300;6.614;2023-07-02T09:43:17;7.85;;;1.50;;
52942;SDS011;38809;53.300;6.614;2023-07-02T09:45:45;5.00;;;1.83;;
52942;SDS011;38809;53.300;6.614;2023-07-02T09:48:15;6.65;;;2.15;;
52942;SDS011;38809;53.300;6.614;2023-07-02T09:50:45;5.68;;;1.88;;
52942;SDS011;38809;53.300;6.614;2023-07-02T09:53:13;5.10;;;1.77;;
52942;SDS011;38809;53.300;6.614;2023-07-02T09:55:39;4.40;;;1.67;;
52942;SDS011;38809;53.300;6.614;2023-07-02T09:58:07;3.20;;;1.60;;
52942;SDS011;38809;53.300;6.614;2023-07-02T10:00:33;4.30;;;1.75;;
52942;SDS011;38809;53.300;6.614;2023-07-02T10:02:59;3.10;;;1.38;;
52942;SDS011;38809;53.300;6.614;2023-07-02T10:05:34;4.50;;;1.52;;
52942;SDS011;38809;53.300;6.614;2023-07-02T10:08:15;4.82;;;1.50;;
52942;SDS011;38809;53.300;6.614;2023-07-02T10:10:46;6.18;;;1.60;;
52942;SDS011;38809;53.300;6.614;2023-07-02T10:13:13;6.35;;;1.90;;
52942;SDS011;38809;53.300;6.614;2023-07-02T10:15:39;6.18;;;1.88;;
52942;SDS011;38809;53.300;6.614;2023-07-02T10:18:05;5.60;;;1.80;;
52942;SDS011;38809;53.300;6.614;2023-07-02T10:20:32;6.22;;;1.63;;
52942;SDS011;38809;53.300;6.614;2023-07-02T10:22:59;3.92;;;1.33;;
52942;SDS011;38809;53.300;6.614;2023-07-02T10:25:30;3.97;;;1.25;;
52942;SDS011;38809;53.300;6.614;2023-07-02T10:27:59;4.63;;;1.55;;
52942;SDS011;38809;53.300;6.614;2023-07-02T10:30:47;5.32;;;1.33;;
52942;SDS011;38809;53.300;6.614;2023-07-02T10:33:13;6.00;;;1.23;;
52942;SDS011;38809;53.300;6.614;2023-07-02T10:35:47;7.05;;;2.00;;
52942;SDS011;38809;53.300;6.614;2023-07-02T10:38:14;4.03;;;1.52;;
52942;SDS011;38809;53.300;6.614;2023-07-02T10:40:41;3.33;;;1.40;;
52942;SDS011;38809;53.300;6.614;2023-07-02T10:43:08;4.07;;;1.60;;
52942;SDS011;38809;53.300;6.614;2023-07-02T10:45:34;4.80;;;1.63;;
52942;SDS011;38809;53.300;6.614;2023-07-02T10:48:04;5.18;;;1.70;;
52942;SDS011;38809;53.300;6.614;2023-07-02T10:50:38;4.13;;;1.42;;
52942;SDS011;38809;53.300;6.614;2023-07-02T10:53:04;4.13;;;1.67;;
52942;SDS011;38809;53.300;6.614;2023-07-02T10:55:30;6.55;;;1.80;;
52942;SDS011;38809;53.300;6.614;2023-07-02T10:58:03;6.10;;;1.73;;
52942;SDS011;38809;53.300;6.614;2023-07-02T11:03:15;4.97;;;2.20;;
52942;SDS011;38809;53.300;6.614;2023-07-02T11:05:45;5.80;;;2.03;;
52942;SDS011;38809;53.300;6.614;2023-07-02T11:08:12;4.95;;;1.52;;
52942;SDS011;38809;53.300;6.614;2023-07-02T11:10:38;5.22;;;1.83;;
52942;SDS011;38809;53.300;6.614;2023-07-02T11:13:14;4.28;;;1.60;;
52942;SDS011;38809;53.300;6.614;2023-07-02T11:15:43;5.40;;;1.65;;
52942;SDS011;38809;53.300;6.614;2023-07-02T11:18:16;5.03;;;1.95;;
52942;SDS011;38809;53.300;6.614;2023-07-02T11:20:44;5.47;;;1.60;;
52942;SDS011;38809;53.300;6.614;2023-07-02T11:23:20;6.82;;;1.75;;
52942;SDS011;38809;53.300;6.614;2023-07-02T11:25:54;4.85;;;1.23;;
52942;SDS011;38809;53.300;6.614;2023-07-02T11:28:28;5.32;;;1.80;;
52942;SDS011;38809;53.300;6.614;2023-07-02T11:30:56;6.28;;;1.60;;
52942;SDS011;38809;53.300;6.614;2023-07-02T11:33:39;5.55;;;1.73;;
52942;SDS011;38809;53.300;6.614;2023-07-02T11:36:05;3.85;;;1.42;;
52942;SDS011;38809;53.300;6.614;2023-07-02T11:38:36;5.63;;;1.42;;
52942;SDS011;38809;53.300;6.614;2023-07-02T11:41:02;4.40;;;1.20;;
52942;SDS011;38809;53.300;6.614;2023-07-02T11:43:28;3.97;;;1.25;;
52942;SDS011;38809;53.300;6.614;2023-07-02T11:45:54;6.00;;;1.77;;
52942;SDS011;38809;53.300;6.614;2023-07-02T11:48:20;4.32;;;1.30;;
52942;SDS011;38809;53.300;6.614;2023-07-02T11:50:45;4.90;;;1.35;;
52942;SDS011;38809;53.300;6.614;2023-07-02T11:53:11;3.65;;;1.15;;
52942;SDS011;38809;53.300;6.614;2023-07-02T11:55:37;6.50;;;1.85;;
52942;SDS011;38809;53.300;6.614;2023-07-02T11:58:02;5.45;;;1.60;;
52942;SDS011;38809;53.300;6.614;2023-07-02T12:00:28;6.43;;;1.98;;
52942;SDS011;38809;53.300;6.614;2023-07-02T12:02:54;4.70;;;1.83;;
52942;SDS011;38809;53.300;6.614;2023-07-02T12:05:20;5.38;;;1.73;;
52942;SDS011;38809;53.300;6.614;2023-07-02T12:07:46;6.40;;;1.88;;
52942;SDS011;38809;53.300;6.614;2023-07-02T12:10:11;4.45;;;1.67;;
52942;SDS011;38809;53.300;6.614;2023-07-02T12:12:37;4.88;;;1.40;;
52942;SDS011;38809;53.300;6.614;2023-07-02T12:15:03;6.70;;;2.42;;
52942;SDS011;38809;53.300;6.614;2023-07-02T12:17:29;5.25;;;2.17;;
52942;SDS011;38809;53.300;6.614;2023-07-02T12:19:55;4.10;;;1.50;;
52942;SDS011;38809;53.300;6.614;2023-07-02T12:22:21;5.50;;;1.80;;
52942;SDS011;38809;53.300;6.614;2023-07-02T12:24:48;3.85;;;2.00;;
52942;SDS011;38809;53.300;6.614;2023-07-02T12:27:15;6.03;;;1.90;;
52942;SDS011;38809;53.300;6.614;2023-07-02T12:29:40;4.93;;;1.73;;
52942;SDS011;38809;53.300;6.614;2023-07-02T12:32:06;4.25;;;1.50;;
52942;SDS011;38809;53.300;6.614;2023-07-02T12:34:32;6.00;;;1.65;;
52942;SDS011;38809;53.300;6.614;2023-07-02T12:36:58;6.47;;;2.20;;
52942;SDS011;38809;53.300;6.614;2023-07-02T12:39:23;4.13;;;2.00;;
52942;SDS011;38809;53.300;6.614;2023-07-02T12:41:49;3.97;;;1.52;;
52942;SDS011;38809;53.300;6.614;2023-07-02T12:44:15;3.40;;;1.60;;
52942;SDS011;38809;53.300;6.614;2023-07-02T12:46:41;3.53;;;1.65;;
52942;SDS011;38809;53.300;6.614;2023-07-02T12:49:06;3.85;;;1.67;;
52942;SDS011;38809;53.300;6.614;2023-07-02T12:51:32;5.53;;;1.92;;
52942;SDS011;38809;53.300;6.614;2023-07-02T12:53:58;4.10;;;1.70;;
52942;SDS011;38809;53.300;6.614;2023-07-02T12:56:24;4.82;;;1.90;;
52942;SDS011;38809;53.300;6.614;2023-07-02T12:58:49;5.68;;;1.90;;
52942;SDS011;38809;53.300;6.614;2023-07-02T13:01:16;4.43;;;1.60;;
52942;SDS011;38809;53.300;6.614;2023-07-02T13:03:46;5.35;;;1.70;;
52942;SDS011;38809;53.300;6.614;2023-07-02T13:06:12;4.45;;;1.50;;
52942;SDS011;38809;53.300;6.614;2023-07-02T13:08:38;6.07;;;2.40;;
52942;SDS011;38809;53.300;6.614;2023-07-02T13:11:04;4.05;;;2.13;;
52942;SDS011;38809;53.300;6.614;2023-07-02T13:13:30;4.00;;;1.80;;
52942;SDS011;38809;53.300;6.614;2023-07-02T13:15:56;6.88;;;1.92;;
52942;SDS011;38809;53.300;6.614;2023-07-02T13:18:22;4.45;;;1.63;;
52942;SDS011;38809;53.300;6.614;2023-07-02T13:20:48;5.38;;;2.58;;
52942;SDS011;38809;53.300;6.614;2023-07-02T13:23:14;4.72;;;2.08;;
52942;SDS011;38809;53.300;6.614;2023-07-02T13:25:40;4.10;;;1.75;;
52942;SDS011;38809;53.300;6.614;2023-07-02T13:28:05;6.03;;;2.25;;
52942;SDS011;38809;53.300;6.614;2023-07-02T13:30:31;3.83;;;1.90;;
52942;SDS011;38809;53.300;6.614;2023-07-02T13:32:57;5.47;;;2.85;;
52942;SDS011;38809;53.300;6.614;2023-07-02T13:35:23;4.47;;;2.40;;
52942;SDS011;38809;53.300;6.614;2023-07-02T13:37:49;5.00;;;2.00;;
52942;SDS011;38809;53.300;6.614;2023-07-02T13:40:14;6.07;;;1.98;;
52942;SDS011;38809;53.300;6.614;2023-07-02T13:45:07;5.43;;;2.30;;
52942;SDS011;38809;53.300;6.614;2023-07-02T13:47:34;6.13;;;2.10;;
52942;SDS011;38809;53.300;6.614;2023-07-02T13:50:00;7.18;;;2.20;;
52942;SDS011;38809;53.300;6.614;2023-07-02T13:52:27;8.05;;;2.85;;
52942;SDS011;38809;53.300;6.614;2023-07-02T13:54:52;4.18;;;1.90;;
52942;SDS011;38809;53.300;6.614;2023-07-02T13:57:18;6.93;;;2.20;;
52942;SDS011;38809;53.300;6.614;2023-07-02T13:59:44;4.70;;;2.13;;
52942;SDS011;38809;53.300;6.614;2023-07-02T14:02:09;5.35;;;2.20;;
52942;SDS011;38809;53.300;6.614;2023-07-02T14:04:35;7.85;;;2.70;;
52942;SDS011;38809;53.300;6.614;2023-07-02T14:07:02;5.55;;;2.20;;
52942;SDS011;38809;53.300;6.614;2023-07-02T14:09:29;6.65;;;2.58;;
52942;SDS011;38809;53.300;6.614;2023-07-02T14:11:54;5.57;;;2.13;;
52942;SDS011;38809;53.300;6.614;2023-07-02T14:14:20;5.10;;;2.30;;
52942;SDS011;38809;53.300;6.614;2023-07-02T14:16:46;8.38;;;2.25;;
52942;SDS011;38809;53.300;6.614;2023-07-02T14:19:11;5.47;;;2.17;;
52942;SDS011;38809;53.300;6.614;2023-07-02T14:21:37;6.28;;;3.03;;
52942;SDS011;38809;53.300;6.614;2023-07-02T14:24:03;4.38;;;2.45;;
52942;SDS011;38809;53.300;6.614;2023-07-02T14:26:29;4.45;;;2.00;;
52942;SDS011;38809;53.300;6.614;2023-07-02T14:28:55;5.00;;;2.15;;
52942;SDS011;38809;53.300;6.614;2023-07-02T14:31:23;4.90;;;2.10;;
52942;SDS011;38809;53.300;6.614;2023-07-02T14:33:48;5.63;;;1.90;;
52942;SDS011;38809;53.300;6.614;2023-07-02T14:36:14;4.93;;;1.92;;
52942;SDS011;38809;53.300;6.614;2023-07-02T14:41:06;6.28;;;2.22;;
52942;SDS011;38809;53.300;6.614;2023-07-02T14:43:32;6.18;;;2.35;;
52942;SDS011;38809;53.300;6.614;2023-07-02T14:45:59;6.55;;;2.33;;
52942;SDS011;38809;53.300;6.614;2023-07-02T14:48:26;7.20;;;2.35;;
52942;SDS011;38809;53.300;6.614;2023-07-02T14:53:23;6.43;;;2.47;;
52942;SDS011;38809;53.300;6.614;2023-07-02T14:55:50;7.05;;;2.40;;
52942;SDS011;38809;53.300;6.614;2023-07-02T14:58:18;6.57;;;2.40;;
52942;SDS011;38809;53.300;6.614;2023-07-02T15:00:44;5.70;;;2.40;;
52942;SDS011;38809;53.300;6.614;2023-07-02T15:03:11;4.72;;;2.25;;
52942;SDS011;38809;53.300;6.614;2023-07-02T15:05:37;8.20;;;2.50;;
52942;SDS011;38809;53.300;6.614;2023-07-02T15:08:04;6.75;;;2.90;;
52942;SDS011;38809;53.300;6.614;2023-07-02T15:10:30;7.32;;;2.85;;
52942;SDS011;38809;53.300;6.614;2023-07-02T15:12:55;7.78;;;2.75;;
52942;SDS011;38809;53.300;6.614;2023-07-02T15:15:21;6.55;;;2.80;;
52942;SDS011;38809;53.300;6.614;2023-07-02T15:20:13;8.10;;;2.78;;
52942;SDS011;38809;53.300;6.614;2023-07-02T15:22:39;5.75;;;2.20;;
52942;SDS011;38809;53.300;6.614;2023-07-02T15:25:04;5.60;;;2.80;;
52942;SDS011;38809;53.300;6.614;2023-07-02T15:27:30;5.55;;;2.55;;
52942;SDS011;38809;53.300;6.614;2023-07-02T15:29:56;7.13;;;2.35;;
52942;SDS011;38809;53.300;6.614;2023-07-02T15:32:21;5.15;;;2.97;;
52942;SDS011;38809;53.300;6.614;2023-07-02T15:34:48;5.75;;;2.22;;
52942;SDS011;38809;53.300;6.614;2023-07-02T15:37:13;5.18;;;2.30;;
52942;SDS011;38809;53.300;6.614;2023-07-02T15:39:39;6.35;;;2.75;;
52942;SDS011;38809;53.300;6.614;2023-07-02T15:42:05;8.05;;;2.60;;
52942;SDS011;38809;53.300;6.614;2023-07-02T15:44:31;5.07;;;2.30;;
52942;SDS011;38809;53.300;6.614;2023-07-02T15:46:57;8.10;;;2.95;;
52942;SDS011;38809;53.300;6.614;2023-07-02T15:49:23;5.65;;;2.60;;
52942;SDS011;38809;53.300;6.614;2023-07-02T15:51:50;6.97;;;2.90;;
52942;SDS011;38809;53.300;6.614;2023-07-02T15:54:16;6.88;;;3.15;;
52942;SDS011;38809;53.300;6.614;2023-07-02T15:56:41;6.65;;;2.70;;
52942;SDS011;38809;53.300;6.614;2023-07-02T15:59:07;6.10;;;2.72;;
52942;SDS011;38809;53.300;6.614;2023-07-02T16:01:34;6.82;;;2.78;;
52942;SDS011;38809;53.300;6.614;2023-07-02T16:04:02;6.88;;;2.53;;
52942;SDS011;38809;53.300;6.614;2023-07-02T16:06:32;6.38;;;2.63;;
52942;SDS011;38809;53.300;6.614;2023-07-02T16:08:59;6.32;;;2.60;;
52942;SDS011;38809;53.300;6.614;2023-07-02T16:11:31;6.78;;;2.67;;
52942;SDS011;38809;53.300;6.614;2023-07-02T16:13:59;5.22;;;2.17;;
52942;SDS011;38809;53.300;6.614;2023-07-02T16:16:29;5.63;;;2.30;;
52942;SDS011;38809;53.300;6.614;2023-07-02T16:18:55;5.90;;;2.58;;
52942;SDS011;38809;53.300;6.614;2023-07-02T16:21:21;10.73;;;3.10;;
52942;SDS011;38809;53.300;6.614;2023-07-02T16:23:46;6.43;;;2.50;;
52942;SDS011;38809;53.300;6.614;2023-07-02T16:26:12;9.73;;;3.00;;
52942;SDS011;38809;53.300;6.614;2023-07-02T16:28:38;5.63;;;2.55;;
52942;SDS011;38809;53.300;6.614;2023-07-02T16:31:04;6.82;;;2.60;;
52942;SDS011;38809;53.300;6.614;2023-07-02T16:33:31;9.05;;;3.10;;
52942;SDS011;38809;53.300;6.614;2023-07-02T16:35:58;7.32;;;2.60;;
52942;SDS011;38809;53.300;6.614;2023-07-02T16:40:50;6.60;;;2.33;;
52942;SDS011;38809;53.300;6.614;2023-07-02T16:43:16;6.78;;;2.47;;
52942;SDS011;38809;53.300;6.614;2023-07-02T16:48:08;6.20;;;2.47;;
52942;SDS011;38809;53.300;6.614;2023-07-02T16:50:34;8.60;;;2.67;;
52942;SDS011;38809;53.300;6.614;2023-07-02T16:52:59;8.98;;;2.58;;
52942;SDS011;38809;53.300;6.614;2023-07-02T16:55:25;8.60;;;2.83;;
52942;SDS011;38809;53.300;6.614;2023-07-02T16:57:54;7.50;;;2.40;;
52942;SDS011;38809;53.300;6.614;2023-07-02T17:00:20;5.28;;;2.42;;
52942;SDS011;38809;53.300;6.614;2023-07-02T17:02:45;7.25;;;2.83;;
52942;SDS011;38809;53.300;6.614;2023-07-02T17:05:11;6.68;;;2.47;;
52942;SDS011;38809;53.300;6.614;2023-07-02T17:07:37;5.28;;;2.40;;
52942;SDS011;38809;53.300;6.614;2023-07-02T17:10:02;7.28;;;2.90;;
52942;SDS011;38809;53.300;6.614;2023-07-02T17:12:28;4.90;;;2.30;;
52942;SDS011;38809;53.300;6.614;2023-07-02T17:14:54;6.22;;;2.50;;
52942;SDS011;38809;53.300;6.614;2023-07-02T17:17:21;5.65;;;2.45;;
52942;SDS011;38809;53.300;6.614;2023-07-02T17:19:52;5.43;;;2.67;;
52942;SDS011;38809;53.300;6.614;2023-07-02T17:22:23;5.45;;;2.20;;
52942;SDS011;38809;53.300;6.614;2023-07-02T17:24:51;5.60;;;2.40;;
52942;SDS011;38809;53.300;6.614;2023-07-02T17:27:20;7.47;;;2.50;;
52942;SDS011;38809;53.300;6.614;2023-07-02T17:30:00;7.43;;;2.58;;
52942;SDS011;38809;53.300;6.614;2023-07-02T17:32:28;7.65;;;2.10;;
52942;SDS011;38809;53.300;6.614;2023-07-02T17:34:54;8.38;;;3.00;;
52942;SDS011;38809;53.300;6.614;2023-07-02T17:37:20;8.30;;;2.75;;
52942;SDS011;38809;53.300;6.614;2023-07-02T17:39:47;6.70;;;2.75;;
52942;SDS011;38809;53.300;6.614;2023-07-02T17:42:13;6.45;;;2.45;;
52942;SDS011;38809;53.300;6.614;2023-07-02T17:44:41;8.57;;;2.70;;
52942;SDS011;38809;53.300;6.614;2023-07-02T17:47:09;6.50;;;2.20;;
52942;SDS011;38809;53.300;6.614;2023-07-02T17:49:38;7.97;;;2.50;;
52942;SDS011;38809;53.300;6.614;2023-07-02T17:52:06;5.88;;;2.92;;
52942;SDS011;38809;53.300;6.614;2023-07-02T17:54:35;5.53;;;2.47;;
52942;SDS011;38809;53.300;6.614;2023-07-02T17:57:04;6.65;;;2.40;;
52942;SDS011;38809;53.300;6.614;2023-07-02T17:59:31;6.90;;;2.95;;
52942;SDS011;38809;53.300;6.614;2023-07-02T18:01:59;7.25;;;2.83;;
52942;SDS011;38809;53.300;6.614;2023-07-02T18:04:26;5.78;;;2.50;;
52942;SDS011;38809;53.300;6.614;2023-07-02T18:06:52;7.70;;;2.90;;
52942;SDS011;38809;53.300;6.614;2023-07-02T18:09:37;5.75;;;2.53;;
52942;SDS011;38809;53.300;6.614;2023-07-02T18:12:04;7.63;;;2.72;;
52942;SDS011;38809;53.300;6.614;2023-07-02T18:14:30;6.75;;;2.97;;
52942;SDS011;38809;53.300;6.614;2023-07-02T18:16:56;6.90;;;2.60;;
52942;SDS011;38809;53.300;6.614;2023-07-02T18:19:22;7.30;;;3.08;;
52942;SDS011;38809;53.300;6.614;2023-07-02T18:21:50;8.75;;;3.05;;
52942;SDS011;38809;53.300;6.614;2023-07-02T18:24:22;4.90;;;2.38;;
52942;SDS011;38809;53.300;6.614;2023-07-02T18:26:49;5.13;;;2.40;;
52942;SDS011;38809;53.300;6.614;2023-07-02T18:29:16;5.75;;;2.78;;
52942;SDS011;38809;53.300;6.614;2023-07-02T18:31:41;7.35;;;2.92;;
52942;SDS011;38809;53.300;6.614;2023-07-02T18:34:07;7.03;;;2.95;;
52942;SDS011;38809;53.300;6.614;2023-07-02T18:36:33;5.53;;;2.53;;
52942;SDS011;38809;53.300;6.614;2023-07-02T18:38:59;6.03;;;2.70;;
52942;SDS011;38809;53.300;6.614;2023-07-02T18:41:25;7.07;;;3.40;;
52942;SDS011;38809;53.300;6.614;2023-07-02T18:43:50;8.43;;;2.80;;
52942;SDS011;38809;53.300;6.614;2023-07-02T18:46:16;6.15;;;2.60;;
52942;SDS011;38809;53.300;6.614;2023-07-02T18:48:42;5.85;;;2.50;;
52942;SDS011;38809;53.300;6.614;2023-07-02T18:51:07;7.80;;;2.60;;
52942;SDS011;38809;53.300;6.614;2023-07-02T18:53:33;5.38;;;2.85;;
52942;SDS011;38809;53.300;6.614;2023-07-02T18:56:03;6.85;;;2.83;;
52942;SDS011;38809;53.300;6.614;2023-07-02T18:58:31;4.72;;;2.35;;
52942;SDS011;38809;53.300;6.614;2023-07-02T19:00:57;6.90;;;2.58;;
52942;SDS011;38809;53.300;6.614;2023-07-02T19:03:23;6.22;;;2.58;;
52942;SDS011;38809;53.300;6.614;2023-07-02T19:05:49;6.07;;;2.45;;
52942;SDS011;38809;53.300;6.614;2023-07-02T19:08:15;5.68;;;2.97;;
52942;SDS011;38809;53.300;6.614;2023-07-02T19:10:42;4.95;;;2.53;;
52942;SDS011;38809;53.300;6.614;2023-07-02T19:13:09;6.30;;;2.75;;
52942;SDS011;38809;53.300;6.614;2023-07-02T19:15:37;7.68;;;3.42;;
52942;SDS011;38809;53.300;6.614;2023-07-02T19:18:04;7.80;;;3.28;;
52942;SDS011;38809;53.300;6.614;2023-07-02T19:20:32;6.82;;;3.00;;
52942;SDS011;38809;53.300;6.614;2023-07-02T19:25:24;5.28;;;2.70;;
52942;SDS011;38809;53.300;6.614;2023-07-02T19:27:50;7.75;;;3.20;;
52942;SDS011;38809;53.300;6.614;2023-07-02T19:30:16;9.57;;;3.78;;
52942;SDS011;38809;53.300;6.614;2023-07-02T19:32:42;8.73;;;3.83;;
52942;SDS011;38809;53.300;6.614;2023-07-02T19:35:08;8.48;;;3.75;;
52942;SDS011;38809;53.300;6.614;2023-07-02T19:37:34;8.32;;;3.85;;
52942;SDS011;38809;53.300;6.614;2023-07-02T19:40:01;10.02;;;3.47;;
52942;SDS011;38809;53.300;6.614;2023-07-02T19:42:28;10.43;;;3.55;;
52942;SDS011;38809;53.300;6.614;2023-07-02T19:44:55;9.38;;;3.22;;
52942;SDS011;38809;53.300;6.614;2023-07-02T19:47:22;8.32;;;3.70;;
52942;SDS011;38809;53.300;6.614;2023-07-02T19:49:51;9.27;;;3.85;;
52942;SDS011;38809;53.300;6.614;2023-07-02T19:52:19;7.38;;;3.67;;
52942;SDS011;38809;53.300;6.614;2023-07-02T19:54:48;7.63;;;3.25;;
52942;SDS011;38809;53.300;6.614;2023-07-02T19:57:18;9.43;;;3.45;;
52942;SDS011;38809;53.300;6.614;2023-07-02T19:59:47;8.85;;;3.85;;
52942;SDS011;38809;53.300;6.614;2023-07-02T20:02:14;7.70;;;3.80;;
52942;SDS011;38809;53.300;6.614;2023-07-02T20:04:45;7.60;;;3.67;;
52942;SDS011;38809;53.300;6.614;2023-07-02T20:07:12;6.88;;;3.05;;
52942;SDS011;38809;53.300;6.614;2023-07-02T20:09:40;7.30;;;3.28;;
52942;SDS011;38809;53.300;6.614;2023-07-02T20:12:07;7.30;;;2.92;;
52942;SDS011;38809;53.300;6.614;2023-07-02T20:14:34;7.70;;;3.75;;
52942;SDS011;38809;53.300;6.614;2023-07-02T20:17:01;7.30;;;3.58;;
52942;SDS011;38809;53.300;6.614;2023-07-02T20:19:31;8.80;;;4.28;;
52942;SDS011;38809;53.300;6.614;2023-07-02T20:21:57;8.48;;;3.30;;
52942;SDS011;38809;53.300;6.614;2023-07-02T20:24:22;7.80;;;3.85;;
52942;SDS011;38809;53.300;6.614;2023-07-02T20:26:49;9.63;;;3.83;;
52942;SDS011;38809;53.300;6.614;2023-07-02T20:29:19;7.20;;;3.17;;
52942;SDS011;38809;53.300;6.614;2023-07-02T20:34:11;7.85;;;3.88;;
52942;SDS011;38809;53.300;6.614;2023-07-02T20:36:36;9.27;;;3.65;;
52942;SDS011;38809;53.300;6.614;2023-07-02T20:39:02;6.40;;;3.47;;
52942;SDS011;38809;53.300;6.614;2023-07-02T20:41:28;9.35;;;3.47;;
52942;SDS011;38809;53.300;6.614;2023-07-02T20:43:54;8.10;;;3.53;;
52942;SDS011;38809;53.300;6.614;2023-07-02T20:46:25;9.77;;;4.38;;
52942;SDS011;38809;53.300;6.614;2023-07-02T20:48:54;6.82;;;3.60;;
52942;SDS011;38809;53.300;6.614;2023-07-02T20:51:21;8.60;;;4.30;;
52942;SDS011;38809;53.300;6.614;2023-07-02T20:53:48;9.45;;;3.92;;
52942;SDS011;38809;53.300;6.614;2023-07-02T20:56:13;11.20;;;4.25;;
52942;SDS011;38809;53.300;6.614;2023-07-02T20:58:40;8.55;;;4.05;;
52942;SDS011;38809;53.300;6.614;2023-07-02T21:01:06;9.40;;;5.05;;
52942;SDS011;38809;53.300;6.614;2023-07-02T21:03:35;9.77;;;3.92;;
52942;SDS011;38809;53.300;6.614;2023-07-02T21:06:04;7.55;;;4.00;;
52942;SDS011;38809;53.300;6.614;2023-07-02T21:08:32;12.90;;;4.82;;
52942;SDS011;38809;53.300;6.614;2023-07-02T21:13:23;8.48;;;4.30;;
52942;SDS011;38809;53.300;6.614;2023-07-02T21:15:55;11.38;;;4.47;;
52942;SDS011;38809;53.300;6.614;2023-07-02T21:18:22;8.43;;;3.92;;
52942;SDS011;38809;53.300;6.614;2023-07-02T21:20:48;8.38;;;4.43;;
52942;SDS011;38809;53.300;6.614;2023-07-02T21:23:14;10.38;;;4.88;;
52942;SDS011;38809;53.300;6.614;2023-07-02T21:25:39;9.93;;;4.45;;
52942;SDS011;38809;53.300;6.614;2023-07-02T21:28:05;7.65;;;3.85;;
52942;SDS011;38809;53.300;6.614;2023-07-02T21:30:31;7.78;;;4.13;;
52942;SDS011;38809;53.300;6.614;2023-07-02T21:32:56;8.27;;;4.57;;
52942;SDS011;38809;53.300;6.614;2023-07-02T21:35:22;11.30;;;4.90;;
52942;SDS011;38809;53.300;6.614;2023-07-02T21:37:48;13.82;;;4.82;;
52942;SDS011;38809;53.300;6.614;2023-07-02T21:40:13;10.50;;;4.38;;
52942;SDS011;38809;53.300;6.614;2023-07-02T21:42:39;10.60;;;4.63;;
52942;SDS011;38809;53.300;6.614;2023-07-02T21:45:05;9.43;;;4.20;;
52942;SDS011;38809;53.300;6.614;2023-07-02T21:47:33;9.50;;;4.03;;
52942;SDS011;38809;53.300;6.614;2023-07-02T21:49:59;9.98;;;3.78;;
52942;SDS011;38809;53.300;6.614;2023-07-02T21:52:25;10.73;;;3.55;;
52942;SDS011;38809;53.300;6.614;2023-07-02T21:54:53;7.45;;;3.88;;
52942;SDS011;38809;53.300;6.614;2023-07-02T21:57:18;11.02;;;3.95;;
52942;SDS011;38809;53.300;6.614;2023-07-02T21:59:44;9.65;;;3.53;;
52942;SDS011;38809;53.300;6.614;2023-07-02T22:02:10;8.43;;;3.70;;
52942;SDS011;38809;53.300;6.614;2023-07-02T22:04:35;8.25;;;3.75;;
52942;SDS011;38809;53.300;6.614;2023-07-02T22:07:01;9.90;;;4.55;;
52942;SDS011;38809;53.300;6.614;2023-07-02T22:09:27;8.75;;;3.65;;
52942;SDS011;38809;53.300;6.614;2023-07-02T22:11:52;7.53;;;3.47;;
52942;SDS011;38809;53.300;6.614;2023-07-02T22:14:18;9.63;;;4.00;;
52942;SDS011;38809;53.300;6.614;2023-07-02T22:16:44;9.05;;;3.53;;
52942;SDS011;38809;53.300;6.614;2023-07-02T22:19:10;12.32;;;3.97;;
52942;SDS011;38809;53.300;6.614;2023-07-02T22:21:37;6.28;;;3.47;;
52942;SDS011;38809;53.300;6.614;2023-07-02T22:24:09;8.20;;;3.85;;
52942;SDS011;38809;53.300;6.614;2023-07-02T22:26:37;11.38;;;4.57;;
52942;SDS011;38809;53.300;6.614;2023-07-02T22:29:03;9.38;;;3.58;;
52942;SDS011;38809;53.300;6.614;2023-07-02T22:31:29;7.65;;;3.13;;
52942;SDS011;38809;53.300;6.614;2023-07-02T22:33:54;7.55;;;3.22;;
52942;SDS011;38809;53.300;6.614;2023-07-02T22:36:20;9.20;;;3.15;;
52942;SDS011;38809;53.300;6.614;2023-07-02T22:38:46;8.77;;;3.30;;
52942;SDS011;38809;53.300;6.614;2023-07-02T22:41:12;7.18;;;2.85;;
52942;SDS011;38809;53.300;6.614;2023-07-02T22:43:38;8.35;;;3.20;;
52942;SDS011;38809;53.300;6.614;2023-07-02T22:46:03;7.28;;;3.00;;
52942;SDS011;38809;53.300;6.614;2023-07-02T22:48:29;6.32;;;3.28;;
52942;SDS011;38809;53.300;6.614;2023-07-02T22:50:56;10.30;;;3.80;;
52942;SDS011;38809;53.300;6.614;2023-07-02T22:53:22;8.23;;;3.22;;
52942;SDS011;38809;53.300;6.614;2023-07-02T22:55:49;10.13;;;3.85;;
52942;SDS011;38809;53.300;6.614;2023-07-02T22:58:14;7.72;;;3.00;;
52942;SDS011;38809;53.300;6.614;2023-07-02T23:00:40;8.73;;;3.45;;
52942;SDS011;38809;53.300;6.614;2023-07-02T23:03:05;9.38;;;3.22;;
52942;SDS011;38809;53.300;6.614;2023-07-02T23:05:31;7.20;;;2.90;;
52942;SDS011;38809;53.300;6.614;2023-07-02T23:07:57;9.00;;;2.65;;
52942;SDS011;38809;53.300;6.614;2023-07-02T23:10:23;6.43;;;2.50;;
52942;SDS011;38809;53.300;6.614;2023-07-02T23:12:49;7.05;;;3.03;;
52942;SDS011;38809;53.300;6.614;2023-07-02T23:15:16;7.10;;;2.97;;
52942;SDS011;38809;53.300;6.614;2023-07-02T23:17:44;9.02;;;3.03;;
52942;SDS011;38809;53.300;6.614;2023-07-02T23:20:11;5.85;;;2.53;;
52942;SDS011;38809;53.300;6.614;2023-07-02T23:22:39;6.95;;;2.65;;
52942;SDS011;38809;53.300;6.614;2023-07-02T23:25:12;9.15;;;3.08;;
52942;SDS011;38809;53.300;6.614;2023-07-02T23:27:40;5.70;;;2.88;;
52942;SDS011;38809;53.300;6.614;2023-07-02T23:30:11;7.50;;;3.30;;
52942;SDS011;38809;53.300;6.614;2023-07-02T23:32:42;8.52;;;3.00;;
52942;SDS011;38809;53.300;6.614;2023-07-02T23:35:12;8.05;;;3.08;;
52942;SDS011;38809;53.300;6.614;2023-07-02T23:37:38;8.82;;;3.38;;
52942;SDS011;38809;53.300;6.614;2023-07-02T23:40:10;7.03;;;2.63;;
52942;SDS011;38809;53.300;6.614;2023-07-02T23:42:37;7.28;;;2.83;;
52942;SDS011;38809;53.300;6.614;2023-07-02T23:47:31;7.13;;;2.67;;
52942;SDS011;38809;53.300;6.614;2023-07-02T23:49:56;7.53;;;2.40;;
52942;SDS011;38809;53.300;6.614;2023-07-02T23:52:22;6.97;;;2.83;;
52942;SDS011;38809;53.300;6.614;2023-07-02T23:54:49;8.05;;;2.75;;
52942;SDS011;38809;53.300;6.614;2023-07-02T23:57:15;7.03;;;2.50;;
52942;SDS011;38809;53.300;6.614;2023-07-02T23:59:40;9.13;;;3.03;;
